Time;durP1;ratioP1;P1;durP2;ratioP2;P2;SDS_P1;SDS_P2;PMS_P1;PMS_P2;Temp;Humidity;BMP_temperature;BMP_pressure;BME280_temperature;BME280_humidity;BME280_pressure;Samples;Min_cycle;Max_cycle;Signal;HPM_P1;HPM_P2
2023/03/16 00:02:20;;;;;;;;;;;;;;;7.13;51.13;100809.59;4985303;28;6811;-75
2023/03/16 00:04:46;;;;;;;;;;;;;;;7.16;50.83;100800.50;4970087;28;7444;-75
2023/03/16 00:07:13;;;;;;;;;;;;;;;7.20;50.94;100793.94;4984508;28;6942;-75
2023/03/16 00:09:40;;;;;;;;;;;;;;;7.24;50.64;100801.00;4986479;28;6804;-75
2023/03/16 00:12:15;;;;;;;;;;;;;;;7.27;50.44;100796.13;4963543;28;6784;-75
2023/03/16 00:14:43;;;;;;;;;;;;;;;7.31;51.06;100800.66;4975496;28;7933;-75
2023/03/16 00:17:18;;;;;;;;;;;;;;;7.34;50.20;100792.34;4979735;28;7006;-75
2023/03/16 00:19:56;;;;;;;;;;;;;;;7.38;50.29;100781.53;4987249;28;8001;-75
2023/03/16 00:22:30;;;;;;;;;;;;;;;7.43;50.34;100781.84;4988495;28;6796;-75
2023/03/16 00:24:56;;;;;;;;;;;;;;;7.46;50.30;100785.50;4988955;28;7011;-75
2023/03/16 00:27:25;;;;;;;;;;;;;;;7.49;50.04;100793.38;4982139;28;7897;-75
2023/03/16 00:29:55;;;;;;;;;;;;;;;7.53;49.94;100791.00;4983401;28;6964;-75
2023/03/16 00:32:28;;;;;;;;;;;;;;;7.56;50.51;100784.44;4983011;28;7842;-75
2023/03/16 00:34:54;;;;;;;;;;;;;;;7.59;50.63;100779.53;4974934;28;6811;-75
2023/03/16 00:37:22;;;;;;;;;;;;;;;7.63;50.69;100770.44;4985646;28;6864;-75
2023/03/16 00:39:49;;;;;;;;;;;;;;;7.66;50.42;100760.41;4989854;28;6894;-75
2023/03/16 00:42:17;;;;;;;;;;;;;;;7.71;49.97;100768.38;4983021;28;8592;-75
2023/03/16 00:44:43;;;;;;;;;;;;;;;7.71;50.05;100764.16;4971481;28;8616;-75
2023/03/16 00:47:14;;;;;;;;;;;;;;;7.74;49.71;100754.16;4983419;28;7039;-75
2023/03/16 00:49:42;;;;;;;;;;;;;;;7.74;49.78;100756.69;4969285;28;6985;-75
2023/03/16 00:52:15;;;;;;;;;;;;;;;7.74;49.60;100759.25;4984408;28;6855;-75
2023/03/16 00:54:42;;;;;;;;;;;;;;;7.75;50.38;100757.59;5002081;28;6986;-75
2023/03/16 00:57:10;;;;;;;;;;;;;;;7.74;50.60;100750.72;4989358;28;6808;-75
2023/03/16 00:59:37;;;;;;;;;;;;;;;7.75;50.78;100753.38;4983263;28;6943;-75
2023/03/16 01:02:06;;;;;;;;;;;;;;;7.76;50.18;100751.72;4973471;28;6797;-75
2023/03/16 01:04:33;;;;;;;;;;;;;;;7.77;49.93;100750.91;4985012;28;6816;-75
2023/03/16 01:06:59;;;;;;;;;;;;;;;7.78;50.57;100750.13;4970962;28;6803;-76
2023/03/16 01:09:24;;;;;;;;;;;;;;;7.81;50.00;100752.88;4983183;28;6780;-75
2023/03/16 01:11:53;;;;;;;;;;;;;;;7.82;50.65;100739.31;4970087;28;8025;-75
2023/03/16 01:14:20;;;;;;;;;;;;;;;7.85;50.18;100728.44;4967336;28;6875;-75
2023/03/16 01:16:47;;;;;;;;;;;;;;;7.86;50.19;100728.53;4991482;28;6768;-75
2023/03/16 01:19:13;;;;;;;;;;;;;;;7.89;50.07;100726.19;4969546;28;6985;-75
2023/03/16 01:21:41;;;;;;;;;;;;;;;7.91;49.85;100716.94;4986934;28;6960;-75
2023/03/16 01:24:07;;;;;;;;;;;;;;;7.92;50.08;100718.75;4982421;28;7342;-75
2023/03/16 01:26:33;;;;;;;;;;;;;;;7.93;50.17;100706.84;4978385;28;8056;-75
2023/03/16 01:28:59;;;;;;;;;;;;;;;7.95;49.50;100706.94;4985913;28;6808;-75
2023/03/16 01:31:24;;;;;;;;;;;;;;;7.95;49.98;100706.94;4987722;28;6780;-75
2023/03/16 01:33:51;;;;;;;;;;;;;;;7.95;50.39;100701.84;4985194;28;8503;-79
2023/03/16 01:36:18;;;;;;;;;;;;;;;7.96;50.21;100701.06;4966701;28;7011;-75
2023/03/16 01:38:44;;;;;;;;;;;;;;;7.97;50.79;100695.16;4973813;28;6800;-75
2023/03/16 01:41:11;;;;;;;;;;;;;;;7.98;50.63;100689.28;4992043;28;7884;-76
2023/03/16 01:43:39;;;;;;;;;;;;;;;7.99;49.65;100699.59;4994190;28;6836;-75
2023/03/16 01:46:04;;;;;;;;;;;;;;;8.01;50.47;100682.69;4982523;28;7194;-75
2023/03/16 01:48:37;;;;;;;;;;;;;;;8.03;50.84;100683.66;4987485;28;6764;-75
2023/03/16 01:51:13;;;;;;;;;;;;;;;8.04;49.94;100682.00;4987334;28;6792;-75
2023/03/16 01:53:44;;;;;;;;;;;;;;;8.05;49.52;100676.13;4972006;28;7978;-75
2023/03/16 01:56:17;;;;;;;;;;;;;;;8.06;49.94;100671.13;4972948;28;6837;-75
2023/03/16 01:58:45;;;;;;;;;;;;;;;8.08;50.32;100678.84;4975649;28;6808;-75
2023/03/16 02:01:13;;;;;;;;;;;;;;;8.06;49.97;100675.31;4969771;28;6821;-75
2023/03/16 02:03:40;;;;;;;;;;;;;;;8.05;49.92;100668.44;4983320;28;7926;-75
2023/03/16 02:06:17;;;;;;;;;;;;;;;8.06;49.64;100672.78;4983496;28;7226;-75
2023/03/16 02:08:45;;;;;;;;;;;;;;;8.06;49.64;100666.00;4964424;28;8436;-75
2023/03/16 02:11:16;;;;;;;;;;;;;;;8.07;50.48;100659.22;4971975;28;7271;-75
2023/03/16 02:13:45;;;;;;;;;;;;;;;8.08;50.68;100662.66;4969839;28;8015;-75
2023/03/16 02:16:18;;;;;;;;;;;;;;;8.08;50.04;100658.41;4983225;28;6971;-75
2023/03/16 02:18:49;;;;;;;;;;;;;;;8.09;49.94;100670.41;4986861;28;6808;-75
2023/03/16 02:22:00;;;;;;;;;;;;;;;8.12;50.72;100662.06;4988449;28;7035;-75
2023/03/16 02:24:26;;;;;;;;;;;;;;;8.10;50.76;100646.63;4974472;28;7012;-75
2023/03/16 02:27:00;;;;;;;;;;;;;;;8.14;50.08;100651.16;4984058;28;6760;-75
2023/03/16 02:30:00;;;;;;;;;;;;;;;8.18;49.98;100650.53;4990584;28;6820;-75
2023/03/16 02:32:29;;;;;;;;;;;;;;;8.19;49.81;100649.75;4987742;28;6804;-75
2023/03/16 02:34:57;;;;;;;;;;;;;;;8.23;49.70;100652.50;4975081;28;6812;-75
2023/03/16 02:37:23;;;;;;;;;;;;;;;8.25;50.16;100644.13;4976592;28;6947;-75
2023/03/16 02:39:49;;;;;;;;;;;;;;;8.28;49.95;100646.00;4983487;28;7043;-75
2023/03/16 02:42:20;;;;;;;;;;;;;;;8.30;50.42;100644.41;4987673;28;6976;-75
2023/03/16 02:44:54;;;;;;;;;;;;;;;8.32;50.46;100636.06;4984354;28;6800;-75
2023/03/16 02:47:42;;;;;;;;;;;;;;;8.34;49.91;100634.47;4984868;28;7130;-76
2023/03/16 02:50:11;;;;;;;;;;;;;;;8.36;49.32;100634.59;4984691;28;6812;-75
2023/03/16 02:52:39;;;;;;;;;;;;;;;8.39;50.60;100629.66;4987266;28;6808;-75
2023/03/16 02:55:07;;;;;;;;;;;;;;;8.42;49.46;100637.53;4969761;28;6855;-75
2023/03/16 02:57:32;;;;;;;;;;;;;;;8.45;49.34;100630.03;4990347;28;6824;-75
2023/03/16 02:59:58;;;;;;;;;;;;;;;8.47;50.35;100625.88;4985903;28;6779;-75
2023/03/16 03:02:24;;;;;;;;;;;;;;;8.48;49.83;100625.09;4967937;28;6935;-75
2023/03/16 03:04:53;;;;;;;;;;;;;;;8.51;50.55;100621.88;4975861;28;6957;-75
2023/03/16 03:07:20;;;;;;;;;;;;;;;8.54;50.37;100621.19;4965969;28;7263;-75
2023/03/16 03:09:45;;;;;;;;;;;;;;;8.56;49.39;100622.16;4983697;28;6883;-75
2023/03/16 03:12:12;;;;;;;;;;;;;;;8.57;49.40;100618.81;4986580;28;6852;-75
2023/03/16 03:14:39;;;;;;;;;;;;;;;8.59;49.91;100622.34;4978720;28;6881;-76
2023/03/16 03:17:09;;;;;;;;;;;;;;;8.58;49.84;100621.47;4979781;28;6796;-75
2023/03/16 03:19:36;;;;;;;;;;;;;;;8.58;50.41;100611.25;4984642;28;7416;-75
2023/03/16 03:22:05;;;;;;;;;;;;;;;8.65;50.30;100617.59;4971083;28;7220;-75
2023/03/16 03:24:32;;;;;;;;;;;;;;;8.74;49.45;100607.06;4988896;28;6804;-75
2023/03/16 03:26:59;;;;;;;;;;;;;;;8.84;49.03;100594.03;4985134;28;6788;-75
2023/03/16 03:29:33;;;;;;;;;;;;;;;8.92;48.34;100604.69;4983696;28;7134;-75
2023/03/16 03:32:03;;;;;;;;;;;;;;;9.05;48.71;100595.16;4982779;28;7252;-75
2023/03/16 03:34:30;;;;;;;;;;;;;;;9.13;47.89;100597.38;4987286;28;6793;-80
2023/03/16 03:36:56;;;;;;;;;;;;;;;9.21;47.22;100596.91;4968498;28;6784;-80
2023/03/16 03:39:23;;;;;;;;;;;;;;;9.26;47.33;100588.69;4987663;28;6788;-77
2023/03/16 03:41:53;;;;;;;;;;;;;;;9.30;46.70;100588.09;4987772;28;6852;-78
2023/03/16 03:44:23;;;;;;;;;;;;;;;9.30;46.71;100590.63;4975375;28;8435;-80
2023/03/16 03:46:50;;;;;;;;;;;;;;;9.36;46.67;100581.53;4967888;28;8457;-77
2023/03/16 03:49:16;;;;;;;;;;;;;;;9.40;46.63;100588.59;4964394;28;7279;-79
2023/03/16 03:51:42;;;;;;;;;;;;;;;9.42;46.38;100580.22;4987111;28;7037;-77
2023/03/16 03:54:08;;;;;;;;;;;;;;;9.44;46.92;100583.75;4985470;28;6828;-78
2023/03/16 03:56:34;;;;;;;;;;;;;;;9.45;45.84;100579.47;4966508;28;8719;-79
2023/03/16 03:58:59;;;;;;;;;;;;;;;9.49;46.41;100576.31;4965869;28;8498;-79
2023/03/16 04:01:25;;;;;;;;;;;;;;;9.49;46.02;100580.53;4986478;28;7022;-80
2023/03/16 04:03:51;;;;;;;;;;;;;;;9.54;46.10;100590.22;4983628;28;6791;-79
2023/03/16 04:06:17;;;;;;;;;;;;;;;9.55;46.38;100586.88;4979260;28;8580;-78
2023/03/16 04:08:43;;;;;;;;;;;;;;;9.58;46.02;100584.50;4963775;28;6980;-78
2023/03/16 04:11:10;;;;;;;;;;;;;;;9.61;46.15;100590.56;4980033;28;7194;-80
2023/03/16 04:13:36;;;;;;;;;;;;;;;9.62;45.43;100587.22;4966593;28;8570;-79
2023/03/16 04:16:02;;;;;;;;;;;;;;;9.66;45.52;100596.84;4990063;28;6764;-78
2023/03/16 04:18:29;;;;;;;;;;;;;;;9.68;45.49;100595.25;4983737;28;6955;-78
2023/03/16 04:20:55;;;;;;;;;;;;;;;9.69;45.66;100590.19;4986348;28;6936;-77
2023/03/16 04:23:21;;;;;;;;;;;;;;;9.70;45.69;100584.25;4962519;28;6756;-79
2023/03/16 04:25:47;;;;;;;;;;;;;;;9.73;45.55;100587.00;4964546;28;7161;-77
2023/03/16 04:28:16;;;;;;;;;;;;;;;9.72;44.94;100585.25;4968310;28;8501;-80
2023/03/16 04:30:42;;;;;;;;;;;;;;;9.73;45.61;100578.44;4974697;28;6804;-79
2023/03/16 04:33:07;;;;;;;;;;;;;;;9.77;45.42;100574.38;4983539;28;7809;-77
2023/03/16 04:35:33;;;;;;;;;;;;;;;9.79;45.42;100573.66;4984783;28;6768;-80
2023/03/16 04:38:01;;;;;;;;;;;;;;;9.80;45.47;100559.16;4989139;28;6772;-80
2023/03/16 04:40:26;;;;;;;;;;;;;;;9.82;46.10;100565.28;4989828;28;6841;-80
2023/03/16 04:42:52;;;;;;;;;;;;;;;9.84;45.60;100554.28;4989262;28;7134;-80
2023/03/16 04:45:18;;;;;;;;;;;;;;;9.85;45.69;100566.31;4976861;28;8474;-76
2023/03/16 04:47:44;;;;;;;;;;;;;;;9.86;45.85;100557.84;4988048;28;6780;-78
2023/03/16 04:50:11;;;;;;;;;;;;;;;9.88;45.28;100562.16;4967664;28;6952;-79
2023/03/16 04:52:37;;;;;;;;;;;;;;;9.88;45.78;100563.03;4986235;28;8542;-79
2023/03/16 04:55:04;;;;;;;;;;;;;;;9.89;45.69;100561.34;4988762;28;7014;-79
2023/03/16 04:57:31;;;;;;;;;;;;;;;9.91;45.52;100557.19;4967171;28;6904;-79
2023/03/16 04:59:56;;;;;;;;;;;;;;;9.93;45.17;100563.28;4982801;28;9409;-78
2023/03/16 05:02:23;;;;;;;;;;;;;;;9.93;45.38;100563.28;4982986;28;6802;-80
2023/03/16 05:04:48;;;;;;;;;;;;;;;9.98;45.31;100567.84;4971924;28;7421;-75
2023/03/16 05:07:14;;;;;;;;;;;;;;;10.01;45.38;100569.69;4979369;28;6955;-79
2023/03/16 05:09:40;;;;;;;;;;;;;;;10.01;45.13;100572.25;4976168;28;6772;-79
2023/03/16 05:12:06;;;;;;;;;;;;;;;9.99;44.88;100563.59;4972814;28;6756;-76
2023/03/16 05:14:34;;;;;;;;;;;;;;;9.98;44.86;100559.28;4987851;28;8857;-78
2023/03/16 05:17:02;;;;;;;;;;;;;;;9.99;44.93;100563.59;4954144;28;7608;-76
2023/03/16 05:19:29;;;;;;;;;;;;;;;10.00;45.47;100560.25;4969579;28;6990;-79
2023/03/16 05:21:55;;;;;;;;;;;;;;;10.02;45.27;100558.63;4984332;28;7067;-78
2023/03/16 05:24:22;;;;;;;;;;;;;;;10.03;45.28;100555.28;4985883;28;7174;-76
2023/03/16 05:26:48;;;;;;;;;;;;;;;10.03;44.91;100552.72;4975323;28;7231;-79
2023/03/16 05:29:14;;;;;;;;;;;;;;;10.05;44.48;100558.81;4985796;28;7014;-79
2023/03/16 05:31:39;;;;;;;;;;;;;;;10.07;44.40;100569.13;4971788;28;7317;-78
2023/03/16 05:34:05;;;;;;;;;;;;;;;10.10;44.38;100552.25;4982841;28;6950;-78
2023/03/16 05:36:31;;;;;;;;;;;;;;;10.10;44.37;100551.38;4973310;28;6768;-76
2023/03/16 05:38:58;;;;;;;;;;;;;;;10.13;44.23;100557.50;4990452;28;7239;-79
2023/03/16 05:41:23;;;;;;;;;;;;;;;10.17;44.26;100552.56;4974611;28;6804;-79
2023/03/16 05:43:49;;;;;;;;;;;;;;;10.16;43.86;100551.69;4989041;28;7271;-79
2023/03/16 05:46:15;;;;;;;;;;;;;;;10.18;44.34;100551.78;4991321;28;6831;-80
2023/03/16 05:48:40;;;;;;;;;;;;;;;10.18;44.21;100550.06;4986806;28;7369;-78
2023/03/16 05:51:06;;;;;;;;;;;;;;;10.21;44.33;100551.91;4971712;28;8517;-81
2023/03/16 05:53:32;;;;;;;;;;;;;;;10.22;44.21;100554.56;4972592;28;6964;-80
2023/03/16 05:55:58;;;;;;;;;;;;;;;10.21;44.24;100550.25;4984979;28;7020;-82
2023/03/16 05:58:23;;;;;;;;;;;;;;;10.23;44.40;100552.88;4978274;28;6796;-81
2023/03/16 06:00:49;;;;;;;;;;;;;;;10.26;43.96;100553.06;4984484;28;6824;-79
2023/03/16 06:03:16;;;;;;;;;;;;;;;10.26;44.40;100550.50;4986437;28;7401;-80
2023/03/16 06:05:42;;;;;;;;;;;;;;;10.29;43.78;100558.31;4981534;28;6991;-78
2023/03/16 06:08:08;;;;;;;;;;;;;;;10.31;43.85;100561.84;4987675;28;7109;-79
2023/03/16 06:10:35;;;;;;;;;;;;;;;10.33;43.67;100557.66;4989547;28;6992;-79
2023/03/16 06:13:00;;;;;;;;;;;;;;;10.33;44.07;100560.22;4988160;28;6860;-76
2023/03/16 06:15:29;;;;;;;;;;;;;;;10.35;43.61;100550.97;4969777;28;6980;-79
2023/03/16 06:17:55;;;;;;;;;;;;;;;10.35;44.07;100550.06;4989540;28;7740;-75
2023/03/16 06:20:21;;;;;;;;;;;;;;;10.37;44.11;100556.16;4989642;28;6808;-79
2023/03/16 06:22:47;;;;;;;;;;;;;;;10.35;43.58;100553.53;4990106;28;7272;-79
2023/03/16 06:25:13;;;;;;;;;;;;;;;10.36;43.88;100552.72;4988521;28;7232;-78
2023/03/16 06:27:39;;;;;;;;;;;;;;;10.35;44.10;100556.09;4984362;28;6867;-75
2023/03/16 06:30:07;;;;;;;;;;;;;;;10.37;44.08;100549.34;4957221;28;8345;-80
2023/03/16 06:32:34;;;;;;;;;;;;;;;10.39;44.28;100550.31;4978243;28;7416;-79
2023/03/16 06:35:02;;;;;;;;;;;;;;;10.39;44.08;100550.31;4980000;28;6808;-80
2023/03/16 06:37:29;;;;;;;;;;;;;;;10.42;43.90;100541.94;4966253;28;7938;-82
2023/03/16 06:39:55;;;;;;;;;;;;;;;10.44;43.78;100550.56;4983953;28;7175;-80
2023/03/16 06:42:21;;;;;;;;;;;;;;;10.47;44.09;100542.16;4963032;28;6935;-80
2023/03/16 06:44:46;;;;;;;;;;;;;;;10.46;44.44;100550.66;4980426;28;6959;-79
2023/03/16 06:47:12;;;;;;;;;;;;;;;10.45;44.52;100556.59;4986247;28;6865;-80
2023/03/16 06:49:39;;;;;;;;;;;;;;;10.44;44.38;100560.81;4958844;28;7282;-78
2023/03/16 06:52:05;;;;;;;;;;;;;;;10.47;44.24;100560.09;4981556;28;7123;-79
2023/03/16 06:54:36;;;;;;;;;;;;;;;10.52;44.66;100561.19;4954994;28;6963;-80
2023/03/16 06:57:02;;;;;;;;;;;;;;;10.56;44.43;100547.75;4956143;28;8786;-77
2023/03/16 06:59:28;;;;;;;;;;;;;;;10.64;44.59;100551.59;4962260;28;7159;-76
2023/03/16 07:01:54;;;;;;;;;;;;;;;10.72;44.71;100538.25;4963420;28;6792;-80
2023/03/16 07:04:20;;;;;;;;;;;;;;;10.81;44.45;100538.72;4973501;28;6776;-77
2023/03/16 07:06:46;;;;;;;;;;;;;;;10.90;44.60;100546.00;4988898;28;6855;-78
2023/03/16 07:09:11;;;;;;;;;;;;;;;10.96;44.90;100528.31;4971321;28;6768;-76
2023/03/16 07:11:38;;;;;;;;;;;;;;;11.02;44.74;100528.63;4988411;28;6764;-80
2023/03/16 07:14:04;;;;;;;;;;;;;;;11.10;44.76;100535.00;4983947;28;6795;-79
2023/03/16 07:16:30;;;;;;;;;;;;;;;11.15;45.09;100545.50;4968089;28;6833;-75
2023/03/16 07:18:56;;;;;;;;;;;;;;;11.20;44.54;100543.16;4987526;28;6784;-80
2023/03/16 07:21:22;;;;;;;;;;;;;;;11.24;44.29;100550.16;4989230;28;6825;-79
2023/03/16 07:23:49;;;;;;;;;;;;;;;11.25;44.73;100552.81;4985649;28;6788;-78
2023/03/16 07:26:15;;;;;;;;;;;;;;;11.28;44.64;100551.19;4995624;28;6848;-79
2023/03/16 07:28:40;;;;;;;;;;;;;;;11.29;44.83;100553.84;4987663;28;6942;-80
2023/03/16 07:31:08;;;;;;;;;;;;;;;11.32;44.62;100553.13;4984379;28;6942;-77
2023/03/16 07:33:34;;;;;;;;;;;;;;;11.32;44.71;100553.13;4968997;28;6804;-79
2023/03/16 07:36:04;;;;;;;;;;;;;;;11.32;44.27;100558.25;4988069;28;6784;-78
2023/03/16 07:38:32;;;;;;;;;;;;;;;11.34;44.43;100561.75;4985900;28;6983;-80
2023/03/16 07:40:59;;;;;;;;;;;;;;;11.37;44.83;100561.91;4972925;28;6960;-80
2023/03/16 07:43:25;;;;;;;;;;;;;;;11.43;44.94;100563.88;4973105;28;8057;-79
2023/03/16 07:45:51;;;;;;;;;;;;;;;11.48;44.74;100563.28;4972409;28;6780;-78
2023/03/16 07:48:18;;;;;;;;;;;;;;;11.57;44.52;100559.38;4962957;28;6796;-79
2023/03/16 07:50:47;;;;;;;;;;;;;;;11.66;45.21;100559.81;4984070;28;7384;-76
2023/03/16 07:53:14;;;;;;;;;;;;;;;11.76;44.95;100553.44;4984158;28;7312;-78
2023/03/16 07:55:41;;;;;;;;;;;;;;;11.85;44.55;100558.09;4993441;28;6800;-78
2023/03/16 07:58:09;;;;;;;;;;;;;;;11.91;44.22;100556.66;4995023;28;9686;-79
2023/03/16 08:00:35;;;;;;;;;;;;;;;11.98;44.37;100554.38;4987462;28;6849;-78
2023/03/16 08:03:01;;;;;;;;;;;;;;;12.02;44.43;100546.91;4980866;28;6796;-76
2023/03/16 08:05:26;;;;;;;;;;;;;;;12.06;44.12;100545.38;4983924;28;7133;-80
2023/03/16 08:07:52;;;;;;;;;;;;;;;12.11;44.83;100550.72;4965992;28;6995;-78
2023/03/16 08:10:18;;;;;;;;;;;;;;;12.17;44.83;100538.16;4985082;28;7677;-79
2023/03/16 08:12:44;;;;;;;;;;;;;;;12.21;44.85;100538.31;4986366;28;6768;-80
2023/03/16 08:15:10;;;;;;;;;;;;;;;12.29;44.32;100528.38;4972115;28;6772;-76
2023/03/16 08:17:36;;;;;;;;;;;;;;;12.36;45.02;100527.84;4960680;28;8573;-81
2023/03/16 08:20:12;;;;;;;;;;;;;;;12.45;44.92;100527.34;4974155;28;7397;-79
2023/03/16 08:22:38;;;;;;;;;;;;;;;12.55;44.70;100526.03;4968047;28;7186;-80
2023/03/16 08:25:09;;;;;;;;;;;;;;;12.65;45.13;100535.00;4977377;28;6768;-79
2023/03/16 08:27:39;;;;;;;;;;;;;;;12.73;44.60;100531.06;4970991;28;6863;-78
2023/03/16 08:30:10;;;;;;;;;;;;;;;12.81;44.74;100536.53;4977262;28;6932;-76
2023/03/16 08:32:36;;;;;;;;;;;;;;;12.91;44.55;100525.78;4984629;28;13303;-79
2023/03/16 08:35:02;;;;;;;;;;;;;;;13.06;45.04;100525.53;4985717;28;7221;-80
2023/03/16 08:37:28;;;;;;;;;;;;;;;13.24;44.59;100527.06;4957583;28;8713;-77
2023/03/16 08:39:54;;;;;;;;;;;;;;;13.39;44.66;100521.63;4981432;28;7330;-79
2023/03/16 08:42:21;;;;;;;;;;;;;;;13.52;44.27;100519.56;4963623;28;8492;-77
2023/03/16 08:44:46;;;;;;;;;;;;;;;13.63;44.30;100525.13;4985144;28;7628;-80
2023/03/16 08:47:13;;;;;;;;;;;;;;;13.74;43.95;100521.25;4985564;28;6824;-80
2023/03/16 08:49:40;;;;;;;;;;;;;;;13.86;43.94;100518.25;4968032;28;6796;-80
2023/03/16 08:52:06;;;;;;;;;;;;;;;13.96;43.71;100516.91;4985152;28;7257;-79
2023/03/16 08:54:32;;;;;;;;;;;;;;;14.04;42.76;100525.75;4969571;28;6841;-78
2023/03/16 08:56:58;;;;;;;;;;;;;;;14.08;42.53;100517.31;4985275;28;7007;-80
2023/03/16 08:59:23;;;;;;;;;;;;;;;14.16;43.31;100521.06;4987421;28;6951;-80
2023/03/16 09:01:49;;;;;;;;;;;;;;;14.24;43.36;100517.84;4983871;28;7127;-80
2023/03/16 09:04:15;;;;;;;;;;;;;;;14.32;43.08;100515.56;4979487;28;6958;-76
2023/03/16 09:06:41;;;;;;;;;;;;;;;14.39;42.68;100525.22;4970150;28;6804;-79
2023/03/16 09:09:08;;;;;;;;;;;;;;;14.49;42.60;100516.13;4984761;28;6796;-80
2023/03/16 09:11:34;;;;;;;;;;;;;;;14.61;42.68;100518.25;4982711;28;7878;-75
2023/03/16 09:14:01;;;;;;;;;;;;;;;14.70;43.00;100521.13;4985040;28;7031;-75
2023/03/16 09:16:26;;;;;;;;;;;;;;;14.75;42.69;100506.69;4985249;28;6780;-75
2023/03/16 09:18:54;;;;;;;;;;;;;;;14.82;41.91;100503.50;4983516;28;7809;-75
2023/03/16 09:21:20;;;;;;;;;;;;;;;14.86;42.07;100504.47;4971301;28;6793;-75
2023/03/16 09:23:46;;;;;;;;;;;;;;;14.88;42.06;100507.97;4985200;28;6971;-75
2023/03/16 09:26:12;;;;;;;;;;;;;;;14.90;41.40;100506.31;4968490;28;7013;-75
2023/03/16 09:28:41;;;;;;;;;;;;;;;14.88;41.37;100491.63;4966860;28;6963;-75
2023/03/16 09:31:08;;;;;;;;;;;;;;;14.87;41.51;100498.47;4960008;28;7802;-75
2023/03/16 09:33:35;;;;;;;;;;;;;;;14.88;41.85;100501.94;4975013;28;6800;-75
2023/03/16 09:36:02;;;;;;;;;;;;;;;14.94;41.82;100492.69;4976151;28;6788;-75
2023/03/16 09:38:29;;;;;;;;;;;;;;;15.06;41.88;100491.31;4984892;28;6796;-75
2023/03/16 09:41:06;;;;;;;;;;;;;;;15.23;41.46;100484.09;4977727;28;7319;-76
2023/03/16 09:43:51;;;;;;;;;;;;;;;15.52;41.87;100486.66;4986648;28;6804;-76
2023/03/16 09:46:41;;;;;;;;;;;;;;;15.87;40.98;100488.47;4985070;28;7500;-75
2023/03/16 09:49:11;;;;;;;;;;;;;;;16.11;40.17;100477.97;4984824;28;7982;-76
2023/03/16 09:52:12;;;;;;;;;;;;;;;16.34;39.82;100469.94;4982150;28;6980;-75
2023/03/16 09:55:05;;;;;;;;;;;;;;;16.50;39.49;100469.47;4980278;28;7685;-75
2023/03/16 09:57:44;;;;;;;;;;;;;;;16.65;39.51;100465.53;4990017;28;6804;-75
2023/03/16 10:00:18;;;;;;;;;;;;;;;16.77;38.47;100471.00;4967742;28;7209;-76
2023/03/16 10:03:17;;;;;;;;;;;;;;;16.88;38.46;100473.84;4988195;28;7024;-75
2023/03/16 10:05:51;;;;;;;;;;;;;;;16.93;37.87;100471.34;4988331;28;7018;-75
2023/03/16 10:08:39;;;;;;;;;;;;;;;16.93;37.41;100461.88;4967423;28;6800;-76
2023/03/16 10:11:31;;;;;;;;;;;;;;;16.89;37.71;100460.06;4984005;28;7226;-75
2023/03/16 10:14:16;;;;;;;;;;;;;;;16.88;37.65;100447.06;4974485;28;7837;-75
2023/03/16 10:17:25;;;;;;;;;;;;;;;16.88;37.02;100453.13;4985185;28;6896;-75
2023/03/16 10:20:20;;;;;;;;;;;;;;;16.96;37.27;100448.13;4989269;28;6804;-75
2023/03/16 10:22:51;;;;;;;;;;;;;;;17.03;36.65;100444.88;4978634;28;7719;-75
2023/03/16 10:25:38;;;;;;;;;;;;;;;17.04;36.56;100438.84;4969922;28;6812;-75
2023/03/16 10:28:03;;;;;;;;;;;;;;;17.04;36.30;100438.84;4986881;28;7045;-75
2023/03/16 10:30:36;;;;;;;;;;;;;;;17.19;36.41;100437.41;4970488;28;6812;-75
2023/03/16 10:33:19;;;;;;;;;;;;;;;17.42;36.12;100432.72;4971203;28;6796;-75
2023/03/16 10:36:30;;;;;;;;;;;;;;;17.68;35.45;100421.16;4968650;28;7216;-75
2023/03/16 10:39:10;;;;;;;;;;;;;;;17.88;35.51;100424.09;4962830;28;6796;-75
2023/03/16 10:41:42;;;;;;;;;;;;;;;18.06;35.23;100422.72;4984479;28;6808;-75
2023/03/16 10:44:28;;;;;;;;;;;;;;;18.27;35.20;100417.88;4983817;28;6807;-75
2023/03/16 10:47:06;;;;;;;;;;;;;;;18.45;35.21;100414.75;4970480;28;6999;-75
2023/03/16 10:49:44;;;;;;;;;;;;;;;18.77;34.80;100417.78;4972459;28;6864;-75
2023/03/16 10:52:43;;;;;;;;;;;;;;;19.22;33.86;100408.91;4986484;28;6803;-75
2023/03/16 10:55:39;;;;;;;;;;;;;;;19.63;32.88;100402.44;4969112;28;6808;-75
2023/03/16 10:58:08;;;;;;;;;;;;;;;20.23;32.86;100394.38;4973028;28;6816;-75
2023/03/16 11:00:40;;;;;;;;;;;;;;;20.86;31.92;100397.41;4979604;28;7024;-74
2023/03/16 11:03:30;;;;;;;;;;;;;;;21.37;31.41;100388.06;5000858;28;7302;-75
2023/03/16 11:05:59;;;;;;;;;;;;;;;21.82;30.81;100378.63;4969878;28;7362;-75
2023/03/16 11:08:30;;;;;;;;;;;;;;;22.05;29.20;100383.88;4979135;28;7806;-75
2023/03/16 11:11:07;;;;;;;;;;;;;;;22.19;29.58;100386.47;4969743;28;7176;-75
2023/03/16 11:13:37;;;;;;;;;;;;;;;22.51;29.33;100382.13;4968561;28;7105;-77
2023/03/16 11:16:40;;;;;;;;;;;;;;;22.89;28.96;100382.06;4984883;28;7155;-79
2023/03/16 11:19:26;;;;;;;;;;;;;;;23.05;27.91;100383.72;4988989;28;6804;-79
2023/03/16 11:22:17;;;;;;;;;;;;;;;22.75;27.96;100384.69;4974591;28;8092;-80
2023/03/16 11:25:01;;;;;;;;;;;;;;;22.19;28.49;100384.75;4989231;28;6875;-76
2023/03/16 11:28:10;;;;;;;;;;;;;;;21.85;29.06;100386.47;4969755;28;7131;-78
2023/03/16 11:30:55;;;;;;;;;;;;;;;21.46;29.08;100382.03;4987306;28;7104;-78
2023/03/16 11:33:20;;;;;;;;;;;;;;;21.22;29.10;100373.25;4985219;28;6792;-76
2023/03/16 11:36:13;;;;;;;;;;;;;;;21.18;29.69;100375.84;4987837;28;6788;-80
2023/03/16 11:38:58;;;;;;;;;;;;;;;21.05;29.31;100361.88;4983523;28;7418;-75
2023/03/16 11:42:08;;;;;;;;;;;;;;;20.73;29.83;100353.03;4987463;28;6963;-77
2023/03/16 11:45:13;;;;;;;;;;;;;;;20.38;30.20;100345.88;4986583;28;7024;-77
2023/03/16 11:48:21;;;;;;;;;;;;;;;20.33;30.65;100345.84;4982764;28;7008;-75
2023/03/16 11:51:05;;;;;;;;;;;;;;;20.78;30.64;100332.22;4985139;28;7020;-79
2023/03/16 11:54:06;;;;;;;;;;;;;;;21.46;30.74;100314.25;4983251;28;6832;-78
2023/03/16 11:56:55;;;;;;;;;;;;;;;22.65;29.24;100314.19;4987280;28;6808;-77
2023/03/16 11:59:35;;;;;;;;;;;;;;;23.14;28.56;100313.97;4970906;28;6815;-79
2023/03/16 12:02:32;;;;;;;;;;;;;;;23.00;27.43;100300.13;4984168;28;6999;-78
2023/03/16 12:05:23;;;;;;;;;;;;;;;22.64;27.69;100307.25;4987613;28;6824;-78
2023/03/16 12:08:10;;;;;;;;;;;;;;;22.24;27.98;100306.44;4982782;28;7010;-78
2023/03/16 12:10:41;;;;;;;;;;;;;;;21.96;28.04;100309.06;4982643;28;7234;-78
2023/03/16 12:13:32;;;;;;;;;;;;;;;21.67;28.27;100301.19;4984936;28;6796;-76
2023/03/16 12:16:31;;;;;;;;;;;;;;;21.33;28.06;100294.22;4983872;28;6899;-78
2023/03/16 12:19:20;;;;;;;;;;;;;;;21.09;28.09;100288.09;4983898;28;6796;-78
2023/03/16 12:21:56;;;;;;;;;;;;;;;21.01;28.62;100295.91;4985828;28;6800;-78
2023/03/16 12:24:32;;;;;;;;;;;;;;;20.92;28.67;100291.50;4982800;28;6816;-79
2023/03/16 12:27:00;;;;;;;;;;;;;;;20.84;28.79;100288.00;4967504;28;7885;-79
2023/03/16 12:29:43;;;;;;;;;;;;;;;20.70;28.90;100276.63;4982432;28;7153;-78
2023/03/16 12:32:24;;;;;;;;;;;;;;;20.44;28.97;100273.06;4975756;28;7073;-78
2023/03/16 12:35:12;;;;;;;;;;;;;;;20.23;29.20;100265.97;4981439;28;6979;-78
2023/03/16 12:37:58;;;;;;;;;;;;;;;20.05;29.60;100259.81;4984206;28;7265;-79
2023/03/16 12:40:30;;;;;;;;;;;;;;;19.98;30.20;100265.81;4986732;28;6872;-76
2023/03/16 12:43:17;;;;;;;;;;;;;;;19.94;30.46;100258.84;4983234;28;6863;-77
2023/03/16 12:46:03;;;;;;;;;;;;;;;19.92;30.39;100266.59;4980734;28;8530;-75
2023/03/16 12:48:41;;;;;;;;;;;;;;;19.94;30.89;100259.75;4990737;28;6812;-78
2023/03/16 12:51:07;;;;;;;;;;;;;;;19.93;30.78;100257.09;4986315;28;6883;-78
2023/03/16 12:53:49;;;;;;;;;;;;;;;19.91;30.54;100246.66;4972425;28;6772;-79
2023/03/16 12:56:38;;;;;;;;;;;;;;;19.96;31.09;100249.34;4992589;28;6788;-79
2023/03/16 12:59:06;;;;;;;;;;;;;;;20.07;30.78;100246.81;4935654;28;7192;-74
2023/03/16 13:01:43;;;;;;;;;;;;;;;20.17;30.92;100245.13;4987826;28;6808;-78
2023/03/16 13:04:20;;;;;;;;;;;;;;;20.13;30.06;100241.63;4987559;28;6828;-77
2023/03/16 13:07:00;;;;;;;;;;;;;;;20.09;30.68;100239.88;4989975;28;7880;-78
2023/03/16 13:09:31;;;;;;;;;;;;;;;20.04;30.43;100239.84;4964272;28;7245;-78
2023/03/16 13:12:03;;;;;;;;;;;;;;;19.99;30.53;100225.97;4985538;28;6863;-77
2023/03/16 13:14:43;;;;;;;;;;;;;;;20.04;30.41;100225.97;4985155;28;6800;-77